Time;durP1;ratioP1;P1;durP2;ratioP2;P2;SDS_P1;SDS_P2;PMS_P1;PMS_P2;Temp;Humidity;BMP_temperature;BMP_pressure;BME280_temperature;BME280_humidity;BME280_pressure;Samples;Min_cycle;Max_cycle;Signal;HPM_P1;HPM_P2
2021/10/29 00:02:21;;;;;;;1999.90;999.90;;;;;;;3.14;98.10;96535.94;5154353;27;20193;-68
2021/10/29 00:04:49;;;;;;;1999.90;999.90;;;;;;;3.07;98.71;96540.41;5154478;27;20202;-68
2021/10/29 00:07:17;;;;;;;1999.90;999.90;;;;;;;2.93;97.75;96539.03;5154577;27;20202;-68
2021/10/29 00:09:44;;;;;;;1999.90;999.90;;;;;;;2.75;97.38;96527.00;5154548;27;20194;-68
2021/10/29 00:12:12;;;;;;;1999.90;999.90;;;;;;;2.70;97.23;96529.44;5154522;27;20254;-68
2021/10/29 00:14:41;;;;;;;1999.90;999.90;;;;;;;2.73;97.22;96533.38;5154092;27;20653;-67
2021/10/29 00:17:09;;;;;;;1999.90;999.90;;;;;;;2.48;97.57;96529.16;5154343;27;20204;-68
2021/10/29 00:19:36;;;;;;;1999.90;999.90;;;;;;;2.30;97.95;96529.16;5154385;27;20201;-67
2021/10/29 00:22:03;;;;;;;1999.90;999.90;;;;;;;2.17;97.48;96526.75;5154303;27;20255;-68
2021/10/29 00:24:32;;;;;;;1999.90;999.90;;;;;;;2.22;98.26;96520.97;5154380;27;20250;-67
2021/10/29 00:26:59;;;;;;;1999.90;999.90;;;;;;;2.13;99.14;96523.06;5153839;27;20284;-67
2021/10/29 00:29:26;;;;;;;1999.90;999.90;;;;;;;2.07;99.08;96517.00;5153795;27;20194;-67
2021/10/29 00:31:53;;;;;;;1999.90;999.90;;;;;;;2.01;97.59;96519.63;5153694;27;20228;-68
2021/10/29 00:34:20;;;;;;;1999.90;999.90;;;;;;;2.03;97.38;96513.31;5152898;27;20284;-68
2021/10/29 00:36:47;;;;;;;1999.90;999.90;;;;;;;1.91;98.04;96504.75;5133362;27;20202;-68
2021/10/29 00:39:15;;;;;;;1999.90;999.90;;;;;;;1.78;97.64;96515.16;5133290;27;20630;-67
2021/10/29 00:41:44;;;;;;;1999.90;999.90;;;;;;;1.78;98.85;96516.94;5142289;27;20222;-69
2021/10/29 00:44:11;;;;;;;1999.90;999.90;;;;;;;1.82;99.52;96513.72;5153507;27;20207;-69
2021/10/29 00:46:38;;;;;;;1999.90;999.90;;;;;;;1.80;99.29;96518.25;5153461;27;20205;-69
2021/10/29 00:49:05;;;;;;;1999.90;999.90;;;;;;;1.76;100.00;96517.13;5153328;27;20226;-68
2021/10/29 00:51:32;;;;;;;1999.90;999.90;;;;;;;1.83;99.69;96511.94;5153371;27;20761;-69
2021/10/29 00:53:59;;;;;;;1999.90;999.90;;;;;;;1.73;99.97;96505.53;5153570;27;20757;-68
2021/10/29 00:56:29;;;;;;;1999.90;999.90;;;;;;;1.76;100.00;96508.66;5153154;27;20606;-69
2021/10/29 00:58:57;;;;;;;1999.90;999.90;;;;;;;1.77;100.00;96499.97;5153509;27;20197;-68
2021/10/29 01:01:24;;;;;;;1999.90;999.90;;;;;;;1.80;100.00;96496.97;5153429;27;20196;-68
2021/10/29 01:03:51;;;;;;;1999.90;999.90;;;;;;;1.73;100.00;96502.97;5153252;27;20662;-68
2021/10/29 01:06:19;;;;;;;1999.90;999.90;;;;;;;1.70;100.00;96500.03;5153309;27;20204;-69
2021/10/29 01:08:46;;;;;;;1999.90;999.90;;;;;;;1.65;100.00;96505.00;5153300;27;20256;-68
2021/10/29 01:11:16;;;;;;;1999.90;999.90;;;;;;;1.63;99.91;96497.56;5153041;27;20227;-69
2021/10/29 01:13:45;;;;;;;1999.90;999.90;;;;;;;1.57;100.00;96492.50;5114401;27;20189;-69
2021/10/29 01:16:13;;;;;;;1999.90;999.90;;;;;;;1.57;100.00;96493.28;5111571;28;20225;-68
2021/10/29 01:18:40;;;;;;;1999.90;999.90;;;;;;;1.59;100.00;96496.41;5117171;27;20238;-68
2021/10/29 01:21:09;;;;;;;1999.90;999.90;;;;;;;1.61;100.00;96491.84;5128273;27;20213;-68
2021/10/29 01:23:37;;;;;;;1999.90;999.90;;;;;;;1.73;100.00;96497.06;5132361;27;20201;-68
2021/10/29 01:26:06;;;;;;;1999.90;999.90;;;;;;;1.76;100.00;96490.72;5132275;27;20554;-68
2021/10/29 01:28:33;;;;;;;1999.90;999.90;;;;;;;1.86;100.00;96496.13;5131804;27;20791;-69
2021/10/29 01:31:01;;;;;;;1999.90;999.90;;;;;;;1.86;100.00;96494.34;5132050;27;20245;-68
2021/10/29 01:33:28;;;;;;;1999.90;999.90;;;;;;;1.84;100.00;96491.25;5131937;27;20208;-68
2021/10/29 01:35:56;;;;;;;1999.90;999.90;;;;;;;1.82;100.00;96489.88;5131982;27;20253;-68
2021/10/29 01:38:30;;;;;;;1999.90;999.90;;;;;;;1.92;100.00;96493.50;5132024;27;20198;-68
2021/10/29 01:40:57;;;;;;;1999.90;999.90;;;;;;;1.95;100.00;96489.72;5132011;27;20221;-68
2021/10/29 01:43:24;;;;;;;1999.90;999.90;;;;;;;1.86;100.00;96483.31;5131596;27;20758;-68
2021/10/29 01:45:51;;;;;;;1999.90;999.90;;;;;;;1.86;100.00;96485.88;5131591;27;20227;-69
2021/10/29 01:48:18;;;;;;;1999.90;999.90;;;;;;;1.88;100.00;96489.81;5131584;27;20200;-68
2021/10/29 01:50:45;;;;;;;1999.90;999.90;;;;;;;1.82;100.00;96487.31;5131540;27;20225;-69
2021/10/29 01:53:13;;;;;;;1999.90;999.90;;;;;;;1.76;100.00;96483.03;5131659;27;20211;-68
2021/10/29 01:55:42;;;;;;;1999.90;999.90;;;;;;;1.76;100.00;96483.03;5131501;27;20209;-68
2021/10/29 01:58:09;;;;;;;1999.90;999.90;;;;;;;1.52;100.00;96484.66;5131298;27;20257;-68
2021/10/29 02:00:36;;;;;;;1999.90;999.90;;;;;;;1.50;100.00;96486.63;5131624;27;20201;-68
2021/10/29 02:03:03;;;;;;;1999.90;999.90;;;;;;;1.43;100.00;96489.28;5131535;27;20281;-69
2021/10/29 02:05:30;;;;;;;1999.90;999.90;;;;;;;1.40;100.00;96486.31;5131585;27;20233;-69
2021/10/29 02:07:57;;;;;;;1999.90;999.90;;;;;;;1.33;100.00;96491.53;5131287;27;20214;-69
2021/10/29 02:10:24;;;;;;;1999.90;999.90;;;;;;;1.38;100.00;96483.22;5131122;27;20745;-68
2021/10/29 02:12:53;;;;;;;1999.90;999.90;;;;;;;1.33;100.00;96481.28;5131477;27;20225;-69
2021/10/29 02:15:20;;;;;;;1999.90;999.90;;;;;;;1.29;100.00;96482.72;5131568;27;20197;-68
2021/10/29 02:17:47;;;;;;;1999.90;999.90;;;;;;;1.38;100.00;96493.47;5131294;27;20616;-68
2021/10/29 02:20:14;;;;;;;1999.90;999.90;;;;;;;1.37;100.00;96484.19;5131149;27;20573;-68
2021/10/29 02:22:41;;;;;;;1999.90;999.90;;;;;;;1.38;100.00;96484.00;5131527;27;20284;-68
2021/10/29 02:25:09;;;;;;;1999.90;999.90;;;;;;;1.38;100.00;96481.44;5131625;27;20624;-68
2021/10/29 02:27:37;;;;;;;1999.90;999.90;;;;;;;1.41;100.00;96475.88;5131146;27;20291;-68
2021/10/29 02:30:07;;;;;;;1999.90;999.90;;;;;;;1.35;100.00;96479.28;5131080;27;20205;-68
2021/10/29 02:32:34;;;;;;;1999.90;999.90;;;;;;;1.28;100.00;96473.44;5131236;27;20673;-68
2021/10/29 02:35:01;;;;;;;1999.90;999.90;;;;;;;1.27;100.00;96477.00;5131178;27;20209;-68
2021/10/29 02:37:28;;;;;;;1999.90;999.90;;;;;;;1.28;100.00;96474.25;5131123;27;20658;-67
2021/10/29 02:39:56;;;;;;;1999.90;999.90;;;;;;;1.29;100.00;96475.03;5130967;27;20261;-68
2021/10/29 02:42:23;;;;;;;1999.90;999.90;;;;;;;1.25;100.00;96473.84;5131064;27;20196;-68
2021/10/29 02:44:50;;;;;;;1999.90;999.90;;;;;;;1.26;100.00;96468.53;5130844;27;20196;-68
2021/10/29 02:47:18;;;;;;;1999.90;999.90;;;;;;;1.20;100.00;96464.25;5130784;27;20289;-68
2021/10/29 02:49:46;;;;;;;1999.90;999.90;;;;;;;1.14;100.00;96472.00;5131165;27;20588;-68
2021/10/29 02:52:13;;;;;;;1999.90;999.90;;;;;;;1.22;100.00;96475.06;5130958;27;20312;-68
2021/10/29 02:54:40;;;;;;;1999.90;999.90;;;;;;;1.17;100.00;96476.69;5131386;27;20275;-68
2021/10/29 02:57:07;;;;;;;1999.90;999.90;;;;;;;1.18;100.00;96480.81;5131041;27;20201;-68
2021/10/29 02:59:34;;;;;;;1999.90;999.90;;;;;;;1.10;100.00;96478.50;5130651;27;20196;-68
2021/10/29 03:02:01;;;;;;;1999.90;999.90;;;;;;;0.90;100.00;96483.03;5130953;27;20199;-68
2021/10/29 03:04:30;;;;;;;1999.90;999.90;;;;;;;0.74;100.00;96482.53;5130928;27;20267;-68
2021/10/29 03:06:57;;;;;;;1999.90;999.90;;;;;;;0.76;100.00;96485.66;5130931;27;20349;-68
2021/10/29 03:09:24;;;;;;;1999.90;999.90;;;;;;;0.72;100.00;96483.72;5130870;27;20200;-68
2021/10/29 03:11:51;;;;;;;1999.90;999.90;;;;;;;0.78;100.00;96491.34;5134374;27;20224;-68
2021/10/29 03:14:18;;;;;;;1999.90;999.90;;;;;;;0.73;100.00;96490.41;5134562;27;20295;-67
2021/10/29 03:16:45;;;;;;;1999.90;999.90;;;;;;;0.62;100.00;96489.28;5134508;27;20204;-68
2021/10/29 03:19:12;;;;;;;1999.90;999.90;;;;;;;0.65;100.00;96496.53;5134809;27;20194;-68
2021/10/29 03:21:41;;;;;;;1999.90;999.90;;;;;;;0.61;100.00;96490.25;5128293;27;20746;-68
2021/10/29 03:24:08;;;;;;;1999.90;999.90;;;;;;;0.59;100.00;96484.59;5114035;28;20247;-68
2021/10/29 03:26:35;;;;;;;1999.90;999.90;;;;;;;0.66;100.00;96484.53;5113660;28;20200;-68
2021/10/29 03:29:02;;;;;;;1999.90;999.90;;;;;;;0.71;100.00;96488.03;5113456;28;20238;-68
2021/10/29 03:31:29;;;;;;;1999.90;999.90;;;;;;;0.66;100.00;96490.44;5113594;28;20276;-68
2021/10/29 03:33:56;;;;;;;1999.90;999.90;;;;;;;0.64;100.00;96481.41;5113922;28;20265;-68
2021/10/29 03:36:23;;;;;;;1999.90;999.90;;;;;;;0.71;100.00;96482.94;5131373;27;20630;-68
2021/10/29 03:38:57;;;;;;;1999.90;999.90;;;;;;;0.69;100.00;96487.47;5134230;27;20190;-68
2021/10/29 03:41:26;;;;;;;1999.90;999.90;;;;;;;0.56;100.00;96487.53;5134160;27;20216;-68
2021/10/29 03:43:56;;;;;;;1999.90;999.90;;;;;;;0.46;100.00;96484.66;5134246;27;20199;-68
2021/10/29 03:46:25;;;;;;;1999.90;999.90;;;;;;;0.53;100.00;96490.50;5134303;27;20251;-68
2021/10/29 03:49:00;;;;;;;1999.90;999.90;;;;;;;0.48;100.00;96490.34;5133878;27;20199;-68
2021/10/29 03:51:30;;;;;;;1999.90;999.90;;;;;;;0.37;100.00;96486.66;5134007;27;20643;-68
2021/10/29 03:54:01;;;;;;;1999.90;999.90;;;;;;;0.41;100.00;96490.38;5133778;27;20187;-68
2021/10/29 03:56:29;;;;;;;1999.90;999.90;;;;;;;0.43;100.00;96493.53;5133947;27;20190;-68
2021/10/29 03:58:59;;;;;;;1999.90;999.90;;;;;;;0.39;100.00;96489.81;5133960;27;20555;-67
2021/10/29 04:01:26;;;;;;;1999.90;999.90;;;;;;;0.41;100.00;96487.81;5133966;27;20182;-68
2021/10/29 04:03:53;;;;;;;1999.90;999.90;;;;;;;0.33;100.00;96489.84;5133846;27;20663;-68
2021/10/29 04:06:21;;;;;;;1999.90;999.90;;;;;;;0.25;100.00;96482.41;5133531;27;20199;-68
2021/10/29 04:08:48;;;;;;;1999.90;999.90;;;;;;;0.29;100.00;96481.78;5133292;27;20204;-68
2021/10/29 04:11:21;;;;;;;1999.90;999.90;;;;;;;0.24;100.00;96485.94;5133527;27;20219;-68
2021/10/29 04:13:48;;;;;;;1999.90;999.90;;;;;;;0.23;100.00;96481.81;5133355;27;20665;-68
2021/10/29 04:16:15;;;;;;;1999.90;999.90;;;;;;;0.17;100.00;96480.06;5133538;27;20275;-68
2021/10/29 04:18:43;;;;;;;1999.90;999.90;;;;;;;0.17;100.00;96480.06;5133284;27;20293;-68
2021/10/29 04:21:10;;;;;;;1999.90;999.90;;;;;;;0.15;100.00;96482.81;5133135;27;20200;-68
2021/10/29 04:23:37;;;;;;;1999.90;999.90;;;;;;;0.14;100.00;96485.59;5133114;27;20191;-68
2021/10/29 04:26:04;;;;;;;1999.90;999.90;;;;;;;-0.04;100.00;96481.91;5133447;27;20247;-68
2021/10/29 04:28:33;;;;;;;1999.90;999.90;;;;;;;-0.07;100.00;96479.78;5132924;27;20726;-68
2021/10/29 04:31:04;;;;;;;1999.90;999.90;;;;;;;0.00;100.00;96483.06;5133245;27;20195;-68
2021/10/29 04:33:31;;;;;;;1999.90;999.90;;;;;;;0.12;100.00;96478.13;5132970;27;20205;-68
2021/10/29 04:35:59;;;;;;;1999.90;999.90;;;;;;;0.19;100.00;96475.56;5132798;27;20202;-67
2021/10/29 04:38:27;;;;;;;1999.90;999.90;;;;;;;0.15;100.00;96471.84;5132780;27;20291;-67
2021/10/29 04:40:54;;;;;;;1999.90;999.90;;;;;;;0.29;100.00;96473.34;5132908;27;20190;-68
2021/10/29 04:43:21;;;;;;;1999.90;999.90;;;;;;;0.27;100.00;96470.19;5132678;27;20203;-68
2021/10/29 04:45:50;;;;;;;1999.90;999.90;;;;;;;0.24;100.00;96473.16;5132744;27;20252;-68
2021/10/29 04:48:17;;;;;;;1999.90;999.90;;;;;;;0.27;100.00;96465.09;5133023;27;20696;-67
2021/10/29 04:50:44;;;;;;;1999.90;999.90;;;;;;;0.25;100.00;96470.38;5132635;27;20247;-67
2021/10/29 04:53:11;;;;;;;1999.90;999.90;;;;;;;0.29;100.00;96470.78;5132766;27;20222;-68
2021/10/29 04:55:39;;;;;;;1999.90;999.90;;;;;;;0.20;100.00;96475.31;5132510;27;20687;-68
2021/10/29 04:58:07;;;;;;;1999.90;999.90;;;;;;;0.14;100.00;96471.06;5132749;27;20201;-68
2021/10/29 05:00:35;;;;;;;1999.90;999.90;;;;;;;0.15;100.00;96476.94;5132389;27;20194;-67
2021/10/29 05:03:06;;;;;;;1999.90;999.90;;;;;;;0.15;100.00;96476.94;5132322;27;20281;-68
2021/10/29 05:05:34;;;;;;;1999.90;999.90;;;;;;;0.04;100.00;96475.81;5132746;27;20180;-68
2021/10/29 05:08:01;;;;;;;1999.90;999.90;;;;;;;0.05;100.00;96481.72;5132241;27;20198;-68
2021/10/29 05:10:28;;;;;;;1999.90;999.90;;;;;;;0.03;100.00;96491.34;5132579;27;20199;-68
2021/10/29 05:12:55;;;;;;;1999.90;999.90;;;;;;;0.07;100.00;96482.28;5132159;27;20222;-68
2021/10/29 05:15:22;;;;;;;1999.90;999.90;;;;;;;0.16;100.00;96478.50;5132115;27;20710;-68
2021/10/29 05:17:49;;;;;;;1999.90;999.90;;;;;;;0.02;100.00;96485.44;5122541;27;20341;-68
2021/10/29 05:20:18;;;;;;;1999.90;999.90;;;;;;;0.07;100.00;96489.94;5111764;28;20199;-68
2021/10/29 05:22:45;;;;;;;1999.90;999.90;;;;;;;0.11;100.00;96488.53;5111722;28;20272;-68
2021/10/29 05:25:13;;;;;;;1999.90;999.90;;;;;;;0.22;100.00;96490.47;5111394;28;20673;-68
2021/10/29 05:27:40;;;;;;;1999.90;999.90;;;;;;;0.20;100.00;96484.78;5111239;28;20242;-68
2021/10/29 05:30:09;;;;;;;1999.90;999.90;;;;;;;0.24;100.00;96485.94;5111712;28;20252;-68
2021/10/29 05:32:37;;;;;;;1999.90;999.90;;;;;;;0.38;100.00;96492.56;5110467;28;20222;-68
2021/10/29 05:35:05;;;;;;;1999.90;999.90;;;;;;;0.27;100.00;96496.53;5117961;27;20242;-68
2021/10/29 05:37:35;;;;;;;1999.90;999.90;;;;;;;0.33;100.00;96497.50;5131820;27;20198;-68
2021/10/29 05:40:04;;;;;;;1999.90;999.90;;;;;;;0.41;100.00;96497.25;5131882;27;20199;-68
2021/10/29 05:42:33;;;;;;;1999.90;999.90;;;;;;;0.55;100.00;96493.63;5132039;27;20199;-68
2021/10/29 05:45:01;;;;;;;1999.90;999.90;;;;;;;0.55;100.00;96491.06;5131703;27;20230;-68
2021/10/29 05:47:28;;;;;;;1999.90;999.90;;;;;;;0.68;100.00;96498.69;5131653;27;20195;-68
2021/10/29 05:49:56;;;;;;;1999.90;999.90;;;;;;;0.78;100.00;96493.91;5131576;27;20237;-68
2021/10/29 05:52:24;;;;;;;1999.90;999.90;;;;;;;0.82;100.00;96500.19;5131713;27;20661;-68
2021/10/29 05:55:13;;;;;;;1999.90;999.90;;;;;;;0.91;100.00;96502.47;5131510;27;20194;-68
2021/10/29 05:57:41;;;;;;;1999.90;999.90;;;;;;;1.10;100.00;96502.31;5131431;27;20231;-68
2021/10/29 06:00:10;;;;;;;1999.90;999.90;;;;;;;1.23;100.00;96506.56;5131348;27;20285;-69
2021/10/29 06:02:37;;;;;;;1999.90;999.90;;;;;;;1.31;100.00;96508.88;5131316;27;20202;-68
2021/10/29 06:05:06;;;;;;;1999.90;999.90;;;;;;;1.36;100.00;96510.78;5131287;27;20670;-68
2021/10/29 06:07:33;;;;;;;1999.90;999.90;;;;;;;1.52;100.00;96515.38;5131207;27;20205;-68
2021/10/29 06:10:02;;;;;;;1999.90;999.90;;;;;;;1.67;100.00;96516.63;5131396;27;20194;-68
2021/10/29 06:12:29;;;;;;;1999.90;999.90;;;;;;;1.93;100.00;96509.69;5131270;27;20218;-68
2021/10/29 06:14:56;;;;;;;1999.90;999.90;;;;;;;2.14;100.00;96515.13;5131519;27;20196;-68
2021/10/29 06:17:26;;;;;;;1999.90;999.90;;;;;;;2.22;100.00;96515.84;5131211;27;20659;-68
2021/10/29 06:19:53;;;;;;;1999.90;999.90;;;;;;;2.44;100.00;96510.03;5131025;27;20680;-68
2021/10/29 06:22:23;;;;;;;1999.90;999.90;;;;;;;2.71;100.00;96515.63;5131432;27;20270;-68
2021/10/29 06:24:51;;;;;;;1999.90;999.90;;;;;;;3.05;100.00;96514.16;5131187;27;20285;-68
2021/10/29 06:30:05;;;;;;;1999.90;999.90;;;;;;;3.40;100.00;96519.34;5131033;27;20302;-69
2021/10/29 06:32:32;;;;;;;1999.90;999.90;;;;;;;3.77;100.00;96512.97;5131013;27;20952;-68
2021/10/29 06:35:00;;;;;;;1999.90;999.90;;;;;;;3.96;100.00;96518.00;5130342;27;20575;-68
2021/10/29 06:37:27;;;;;;;1999.90;999.90;;;;;;;4.06;100.00;96515.63;5131243;27;20202;-68
2021/10/29 06:39:54;;;;;;;1999.90;999.90;;;;;;;4.20;100.00;96517.72;5131163;27;20625;-68
2021/10/29 06:42:27;;;;;;;1999.90;999.90;;;;;;;4.51;100.00;96516.50;5130881;27;20194;-68
2021/10/29 06:45:05;;;;;;;1999.90;999.90;;;;;;;4.78;100.00;96522.66;5132635;27;20190;-68
2021/10/29 06:47:39;;;;;;;1999.90;999.90;;;;;;;4.97;100.00;96518.13;5135208;27;20639;-68
2021/10/29 07:01:05;;;;;;;1999.90;999.90;;;;;;;6.63;98.43;96513.69;5103303;27;20197;-68
2021/10/29 07:41:56;;;;;;;1999.90;999.90;;;;;;;8.89;88.17;96497.22;5134190;27;20212;-68
2021/10/29 07:44:26;;;;;;;1999.90;999.90;;;;;;;8.91;87.08;96502.94;5134281;27;20229;-68
2021/10/29 07:46:55;;;;;;;1999.90;999.90;;;;;;;8.95;86.95;96503.97;5134261;27;20197;-68
2021/10/29 07:49:27;;;;;;;1999.90;999.90;;;;;;;9.04;87.37;96504.22;5134294;27;20198;-68
2021/10/29 07:51:54;;;;;;;1999.90;999.90;;;;;;;9.25;87.13;96505.03;5134101;27;20191;-68
2021/10/29 07:54:22;;;;;;;1999.90;999.90;;;;;;;9.40;86.24;96505.81;5133862;27;20227;-68
2021/10/29 07:56:49;;;;;;;1999.90;999.90;;;;;;;9.55;86.49;96502.41;5133227;27;20218;-68
2021/10/29 07:59:16;;;;;;;1999.90;999.90;;;;;;;9.71;87.11;96500.59;5134070;27;20190;-68
2021/10/29 08:01:43;;;;;;;1999.90;999.90;;;;;;;9.82;87.18;96491.72;5133697;27;20277;-68
2021/10/29 08:04:12;;;;;;;1999.90;999.90;;;;;;;10.09;87.69;96497.38;5133668;27;20255;-68
2021/10/29 08:06:39;;;;;;;1999.90;999.90;;;;;;;10.25;85.56;96498.91;5133623;27;20285;-68
2021/10/29 08:09:06;;;;;;;1999.90;999.90;;;;;;;10.35;84.91;96488.47;5133562;27;20289;-68
2021/10/29 08:11:33;;;;;;;1999.90;999.90;;;;;;;10.53;86.56;96486.28;5133723;27;20203;-68
2021/10/29 08:14:00;;;;;;;1999.90;999.90;;;;;;;10.66;84.19;96491.66;5133694;27;20251;-68
2021/10/29 08:16:27;;;;;;;1999.90;999.90;;;;;;;10.85;83.85;96486.63;5133714;27;20220;-68
2021/10/29 08:18:54;;;;;;;1999.90;999.90;;;;;;;11.05;82.51;96488.31;5133450;27;20758;-68
2021/10/29 08:21:23;;;;;;;1999.90;999.90;;;;;;;11.15;82.65;96478.63;5133567;27;20213;-68
2021/10/29 08:23:50;;;;;;;1999.90;999.90;;;;;;;11.42;83.01;96482.56;5133262;27;20232;-69
2021/10/29 08:26:17;;;;;;;1999.90;999.90;;;;;;;11.53;80.63;96471.78;5133181;27;20194;-69
2021/10/29 08:28:45;;;;;;;1999.90;999.90;;;;;;;11.77;80.83;96471.84;5132960;27;20230;-68
2021/10/29 08:31:12;;;;;;;1999.90;999.90;;;;;;;11.88;79.56;96475.13;5133021;27;20194;-68
2021/10/29 08:33:39;;;;;;;1999.90;999.90;;;;;;;12.05;79.53;96481.41;5133117;27;20648;-68
2021/10/29 08:36:06;;;;;;;1999.90;999.90;;;;;;;12.12;79.70;96465.47;5132840;27;20259;-69
2021/10/29 08:38:35;;;;;;;1999.90;999.90;;;;;;;12.20;76.58;96467.47;5133325;27;20190;-69
2021/10/29 08:41:02;;;;;;;1999.90;999.90;;;;;;;12.43;76.77;96468.47;5133049;27;20191;-68
2021/10/29 08:43:29;;;;;;;1999.90;999.90;;;;;;;12.39;75.99;96463.06;5132804;27;20685;-68
2021/10/29 08:45:56;;;;;;;1999.90;999.90;;;;;;;12.52;74.59;96464.97;5133125;27;20669;-69
2021/10/29 08:48:26;;;;;;;1999.90;999.90;;;;;;;12.61;74.07;96466.94;5132877;27;20644;-68
2021/10/29 08:50:54;;;;;;;1999.90;999.90;;;;;;;12.67;74.76;96471.81;5132764;27;20237;-68
2021/10/29 08:53:21;;;;;;;1999.90;999.90;;;;;;;12.67;73.60;96466.59;5132966;27;20226;-69
2021/10/29 08:55:50;;;;;;;1999.90;999.90;;;;;;;12.82;73.64;96463.75;5132804;27;20818;-69
2021/10/29 08:58:19;;;;;;;1999.90;999.90;;;;;;;12.84;74.56;96456.44;5133003;27;20186;-68
2021/10/29 09:00:46;;;;;;;1999.90;999.90;;;;;;;13.17;72.19;96462.47;5132795;27;20202;-68
2021/10/29 09:03:26;;;;;;;1999.90;999.90;;;;;;;13.27;71.71;96464.16;5132544;27;20194;-68
2021/10/29 09:06:04;;;;;;;1999.90;999.90;;;;;;;13.24;70.16;96459.50;5132810;27;20183;-69
2021/10/29 09:08:46;;;;;;;1999.90;999.90;;;;;;;13.31;71.62;96459.91;5131540;27;20225;-68
2021/10/29 09:11:32;;;;;;;1999.90;999.90;;;;;;;13.59;71.68;96450.31;5132210;27;20183;-68
2021/10/29 09:31:28;;;;;;;1999.90;999.90;;;;;;;14.05;66.30;96432.69;5111528;28;20186;-69
2021/10/29 09:33:58;;;;;;;1999.90;999.90;;;;;;;14.00;62.88;96430.19;5111361;28;20226;-68
2021/10/29 09:36:28;;;;;;;1999.90;999.90;;;;;;;14.06;65.88;96426.41;5129598;27;20202;-69
2021/10/29 09:39:01;;;;;;;1999.90;999.90;;;;;;;14.20;65.38;96434.22;5131777;27;20580;-68
2021/10/29 09:41:28;;;;;;;1999.90;999.90;;;;;;;14.31;64.26;96437.41;5131763;27;20181;-69
2021/10/29 09:44:05;;;;;;;1999.90;999.90;;;;;;;14.17;64.64;96425.13;5131761;27;20198;-69
2021/10/29 09:46:44;;;;;;;1999.90;999.90;;;;;;;14.34;63.29;96426.38;5131763;27;20182;-68
2021/10/29 09:49:19;;;;;;;1999.90;999.90;;;;;;;14.39;62.89;96421.06;5131823;27;20190;-69
2021/10/29 09:51:55;;;;;;;1999.90;999.90;;;;;;;14.44;62.75;96419.13;5131923;27;20186;-69
2021/10/29 09:54:36;;;;;;;1999.90;999.90;;;;;;;14.60;60.82;96415.09;5131437;27;20206;-69
2021/10/29 09:57:05;;;;;;;1999.90;999.90;;;;;;;14.75;59.45;96413.97;5131847;27;20190;-68
2021/10/29 09:59:33;;;;;;;1999.90;999.90;;;;;;;14.83;56.65;96415.13;5131671;27;20582;-68
2021/10/29 10:02:01;;;;;;;1999.90;999.90;;;;;;;14.76;56.16;96404.28;5131404;27;20202;-68
2021/10/29 10:04:29;;;;;;;1999.90;999.90;;;;;;;14.87;56.39;96402.97;5131439;27;20567;-68
2021/10/29 10:06:57;;;;;;;1999.90;999.90;;;;;;;14.94;54.52;96401.47;5131313;27;20223;-68
2021/10/29 10:09:25;;;;;;;1999.90;999.90;;;;;;;14.96;53.51;96395.94;5131267;27;20198;-68
2021/10/29 10:11:52;;;;;;;1999.90;999.90;;;;;;;15.00;52.56;96396.91;5131189;27;20224;-68
2021/10/29 10:14:20;;;;;;;1999.90;999.90;;;;;;;15.16;53.64;96387.59;5131232;27;20222;-68
2021/10/29 10:16:49;;;;;;;1999.90;999.90;;;;;;;15.22;51.66;96391.66;5131228;27;20202;-68
2021/10/29 10:19:17;;;;;;;1999.90;999.90;;;;;;;15.17;53.47;96380.53;5131133;27;20194;-68
2021/10/29 10:21:48;;;;;;;1999.90;999.90;;;;;;;15.45;55.00;96380.03;5131160;27;20247;-68
2021/10/29 10:24:18;;;;;;;1999.90;999.90;;;;;;;15.35;53.12;96380.31;5131487;27;20214;-69
2021/10/29 10:27:04;;;;;;;1999.90;999.90;;;;;;;15.50;53.09;96381.75;5131090;27;20281;-68
2021/10/29 10:41:03;;;;;;;1999.90;999.90;;;;;;;15.66;52.94;96361.19;5131028;28;20235;-68
2021/10/29 10:43:44;;;;;;;1999.90;999.90;;;;;;;15.83;50.61;96351.53;5131218;27;20198;-68
2021/10/29 10:46:18;;;;;;;1999.90;999.90;;;;;;;15.81;48.33;96353.69;5131219;27;20182;-68
2021/10/29 10:48:52;;;;;;;1999.90;999.90;;;;;;;15.82;45.78;96344.75;5130931;27;20538;-68
2021/10/29 10:51:48;;;;;;;1999.90;999.90;;;;;;;16.03;45.63;96347.56;5131125;27;20251;-68
2021/10/29 10:54:27;;;;;;;1999.90;999.90;;;;;;;16.05;44.56;96349.88;5129380;27;20349;-68
2021/10/29 11:00:00;;;;;;;1999.90;999.90;;;;;;;16.46;42.33;96341.56;5130864;27;20713;-68
2021/10/29 11:02:56;;;;;;;1999.90;999.90;;;;;;;16.41;42.67;96342.50;5131074;27;20200;-68
2021/10/29 11:05:43;;;;;;;1999.90;999.90;;;;;;;16.54;43.48;96327.66;5130996;27;20306;-68
2021/10/29 11:11:12;;;;;;;1999.90;999.90;;;;;;;16.42;40.95;96322.28;5130745;27;20232;-69
2021/10/29 11:13:56;;;;;;;1999.90;999.90;;;;;;;16.49;40.89;96323.34;5130915;27;20209;-68
2021/10/29 11:16:30;;;;;;;1999.90;999.90;;;;;;;16.66;40.25;96325.22;5130740;27;20681;-68
2021/10/29 11:19:05;;;;;;;1999.90;999.90;;;;;;;16.61;37.02;96322.75;5130623;27;20186;-68
2021/10/29 11:21:37;;;;;;;1999.90;999.90;;;;;;;16.38;39.27;96319.50;5130638;27;20189;-68
2021/10/29 11:24:07;;;;;;;1999.90;999.90;;;;;;;16.53;39.55;96307.75;5130554;27;20187;-67
2021/10/29 11:26:40;;;;;;;1999.90;999.90;;;;;;;16.51;39.03;96315.94;5115438;27;20644;-68
2021/10/29 11:29:09;;;;;;;1999.90;999.90;;;;;;;16.34;37.85;96306.22;5109769;28;20227;-68
2021/10/29 11:31:38;;;;;;;1999.90;999.90;;;;;;;16.33;38.58;96299.44;5111683;28;20203;-68
2021/10/29 11:34:07;;;;;;;1999.90;999.90;;;;;;;16.48;40.19;96307.91;5113604;28;20276;-68
2021/10/29 11:36:38;;;;;;;1999.90;999.90;;;;;;;16.43;36.96;96300.22;5133290;27;20226;-68
2021/10/29 11:39:08;;;;;;;1999.90;999.90;;;;;;;16.50;37.04;96301.28;5134248;27;20183;-68
2021/10/29 11:41:37;;;;;;;1999.90;999.90;;;;;;;16.39;37.82;96300.03;5134229;27;20190;-68
2021/10/29 11:44:07;;;;;;;1999.90;999.90;;;;;;;16.62;37.21;96288.31;5133991;27;20240;-68
2021/10/29 11:46:35;;;;;;;1999.90;999.90;;;;;;;16.58;36.70;96292.66;5134318;27;20205;-68
2021/10/29 11:49:05;;;;;;;1999.90;999.90;;;;;;;16.44;37.38;96288.63;5134085;27;20187;-68
2021/10/29 11:51:34;;;;;;;1999.90;999.90;;;;;;;16.63;37.83;96282.00;5134088;27;20178;-68
2021/10/29 11:54:12;;;;;;;1999.90;999.90;;;;;;;16.66;34.73;96283.22;5133735;27;20279;-69
2021/10/29 11:56:43;;;;;;;1999.90;999.90;;;;;;;16.57;34.16;96287.69;5134160;27;20186;-68
2021/10/29 12:01:59;;;;;;;1999.90;999.90;;;;;;;16.72;32.43;96271.47;5133723;27;20182;-68
2021/10/29 12:07:30;;;;;;;1999.90;999.90;;;;;;;16.68;32.62;96273.19;5070200;28;20196;-68
2021/10/29 12:10:03;;;;;;;1999.90;999.90;;;;;;;16.45;34.03;96263.91;5070184;28;20201;-68
2021/10/29 12:12:32;;;;;;;1999.90;999.90;;;;;;;16.56;32.55;96259.91;5102076;27;20214;-69
2021/10/29 12:15:09;;;;;;;1999.90;999.90;;;;;;;16.56;33.86;96260.66;5133515;27;20218;-68
2021/10/29 12:17:48;;;;;;;1999.90;999.90;;;;;;;16.71;31.58;96262.06;5133994;27;20190;-68
2021/10/29 12:20:19;;;;;;;1999.90;999.90;;;;;;;16.65;31.52;96253.56;5133441;27;20175;-68
2021/10/29 12:22:47;;;;;;;1999.90;999.90;;;;;;;16.64;33.37;96259.91;5133398;27;20194;-68
2021/10/29 12:25:26;;;;;;;1999.90;999.90;;;;;;;16.70;33.12;96252.63;5133331;27;20237;-68
2021/10/29 12:27:59;;;;;;;1999.90;999.90;;;;;;;16.74;31.49;96261.41;5133252;27;20300;-68
2021/10/29 12:30:33;;;;;;;1999.90;999.90;;;;;;;16.68;33.07;96254.81;5133379;27;20190;-68
2021/10/29 13:03:42;;;;;;;1999.90;999.90;;;;;;;16.73;32.27;96238.91;5132635;27;20834;-68
2021/10/29 13:06:10;;;;;;;1999.90;999.90;;;;;;;16.48;33.48;96242.31;5132481;27;20187;-68
2021/10/29 13:08:39;;;;;;;1999.90;999.90;;;;;;;16.47;33.38;96240.78;5132676;27;20197;-68